createdAt,value
2023-02-16T00:02:07.203Z,102247.63
2023-02-16T00:07:11.109Z,102255.91
2023-02-16T00:12:53.479Z,102160.19
2023-02-16T00:18:00.424Z,102255.31
2023-02-16T00:23:04.272Z,102254.72
2023-02-16T00:28:19.954Z,102271.69
2023-02-16T00:33:23.751Z,102267.00
2023-02-16T00:38:27.741Z,102262.56
2023-02-16T00:43:32.749Z,102266.16
2023-02-16T00:48:37.642Z,102283.88
2023-02-16T00:53:41.526Z,102284.31
2023-02-16T00:58:45.510Z,102282.28
2023-02-16T01:03:49.483Z,102290.66
2023-02-16T01:09:19.539Z,102295.28
2023-02-16T01:14:23.383Z,102302.81
2023-02-16T01:19:27.802Z,102305.69
2023-02-16T01:24:31.692Z,102203.38
2023-02-16T01:29:36.124Z,102322.38
2023-02-16T01:34:40.098Z,102318.44
2023-02-16T01:39:44.065Z,102346.56
2023-02-16T01:44:53.752Z,102338.44
2023-02-16T01:50:02.126Z,102259.84
2023-02-16T01:55:19.713Z,102369.03
2023-02-16T02:00:32.367Z,102350.91
2023-02-16T02:05:38.135Z,102366.44
2023-02-16T02:11:07.155Z,102366.44
2023-02-16T02:16:12.611Z,102347.28
2023-02-16T02:21:59.237Z,102372.06
2023-02-16T02:27:21.166Z,102381.81
2023-02-16T02:32:37.818Z,102380.00
2023-02-16T02:38:16.986Z,102381.47
2023-02-16T02:43:20.830Z,102375.91
2023-02-16T02:48:25.301Z,102388.22
2023-02-16T02:53:30.159Z,102387.03
2023-02-16T02:59:13.022Z,102385.59
2023-02-16T03:04:23.680Z,102383.97
2023-02-16T03:09:28.552Z,102390.94
2023-02-16T03:14:31.982Z,102406.34
2023-02-16T03:19:54.236Z,102407.03
2023-02-16T03:25:16.399Z,102422.63
2023-02-16T03:30:22.809Z,102415.94
2023-02-16T03:35:27.111Z,102387.72
2023-02-16T03:40:35.858Z,102405.63
2023-02-16T03:45:43.235Z,102416.03
2023-02-16T03:50:47.487Z,102411.00
2023-02-16T03:55:51.323Z,102409.78
2023-02-16T04:00:55.851Z,102390.13
2023-02-16T04:05:59.778Z,102401.06
2023-02-16T04:11:23.565Z,102403.94
2023-02-16T04:16:27.585Z,102404.66
2023-02-16T04:21:31.507Z,102415.34
2023-02-16T04:26:35.988Z,102405.81
2023-02-16T04:31:40.141Z,102415.28
2023-02-16T04:36:44.141Z,102408.88
2023-02-16T04:41:48.322Z,102428.50
2023-02-16T04:46:52.220Z,102417.31
2023-02-16T04:51:56.193Z,102414.59
2023-02-16T04:57:01.069Z,102424.91
2023-02-16T05:02:05.401Z,102403.88
2023-02-16T05:07:09.381Z,102406.81
2023-02-16T05:12:33.050Z,102411.94
2023-02-16T05:17:36.931Z,102426.72
2023-02-16T05:22:40.811Z,102412.06
2023-02-16T05:27:44.951Z,102410.63
2023-02-16T05:32:49.133Z,102415.34
2023-02-16T05:37:52.919Z,102420.81
2023-02-16T05:42:57.108Z,102388.53
2023-02-16T05:48:03.689Z,102400.91
2023-02-16T05:53:08.970Z,102397.28
2023-02-16T05:58:12.897Z,102390.50
2023-02-16T06:03:16.803Z,102396.13
2023-02-16T06:08:20.674Z,102383.16
2023-02-16T06:13:25.441Z,102375.22
2023-02-16T06:18:30.076Z,102302.25
2023-02-16T06:23:33.845Z,102364.38
2023-02-16T06:28:37.793Z,102293.00
2023-02-16T06:33:41.873Z,102365.16
2023-02-16T06:38:46.561Z,102356.38
2023-02-16T06:43:50.380Z,102345.69
2023-02-16T06:48:55.459Z,102348.38
2023-02-16T06:53:59.612Z,102322.63
2023-02-16T06:59:03.972Z,102348.28
2023-02-16T07:04:08.217Z,102347.44
2023-02-16T07:09:12.951Z,102359.06
2023-02-16T07:14:17.708Z,102363.16
2023-02-16T07:19:21.746Z,102370.50
2023-02-16T07:24:25.792Z,102359.50
2023-02-16T07:29:30.653Z,102358.47
2023-02-16T07:34:34.462Z,102364.06
2023-02-16T07:39:38.609Z,102362.19
2023-02-16T07:44:42.434Z,102351.22
2023-02-16T07:49:46.465Z,102370.72
2023-02-16T07:54:50.366Z,102373.78
2023-02-16T07:59:56.583Z,102355.72
2023-02-16T08:05:01.194Z,102356.59
2023-02-16T08:10:07.724Z,102343.53
2023-02-16T08:15:12.681Z,102351.84
2023-02-16T08:20:16.755Z,102344.00
2023-02-16T08:25:20.518Z,102351.22
2023-02-16T08:30:26.498Z,102343.41
2023-02-16T08:35:33.361Z,102346.25
2023-02-16T08:40:37.199Z,102348.16
2023-02-16T08:45:47.748Z,102265.81
2023-02-16T08:50:55.652Z,102283.19
2023-02-16T08:56:01.454Z,102342.97
2023-02-16T09:01:09.148Z,102355.00
2023-02-16T09:06:14.909Z,102278.25
2023-02-16T09:11:19.570Z,102354.25
2023-02-16T09:16:25.092Z,102363.38
2023-02-16T09:21:34.602Z,102373.50
2023-02-16T09:26:43.598Z,102372.53
2023-02-16T09:31:47.557Z,102302.09
2023-02-16T09:36:51.871Z,102381.91
2023-02-16T09:42:34.505Z,102367.69
2023-02-16T09:47:48.225Z,102383.69
2023-02-16T09:52:52.544Z,102370.22
2023-02-16T09:58:19.656Z,102372.88
2023-02-16T10:03:42.194Z,102385.53
2023-02-16T10:08:51.216Z,102401.41
2023-02-16T10:13:59.821Z,102396.06
2023-02-16T10:19:12.687Z,102349.28
2023-02-16T10:24:17.645Z,102400.84
2023-02-16T10:29:24.785Z,102400.53
2023-02-16T10:35:00.196Z,102420.44
2023-02-16T10:40:23.494Z,102407.66
2023-02-16T10:45:32.764Z,102426.84
2023-02-16T10:50:53.271Z,102409.75
2023-02-16T10:55:59.128Z,102404.50
2023-02-16T11:01:22.908Z,102423.47
2023-02-16T11:06:27.649Z,102423.84
2023-02-16T11:11:40.392Z,102417.63
2023-02-16T11:16:44.333Z,102420.56
2023-02-16T11:21:52.841Z,102414.91
2023-02-16T11:27:26.857Z,102408.97
2023-02-16T11:32:35.221Z,102416.38
2023-02-16T11:37:41.703Z,102417.19
2023-02-16T11:42:52.636Z,102423.09
2023-02-16T11:48:02.870Z,102431.53
2023-02-16T11:53:13.756Z,102430.91
2023-02-16T11:58:28.720Z,102434.78
2023-02-16T12:04:00.918Z,102433.59
2023-02-16T12:09:14.751Z,102447.00
2023-02-16T12:14:39.038Z,102447.41
2023-02-16T12:19:49.738Z,102455.22
2023-02-16T12:25:06.103Z,102461.75
2023-02-16T12:30:20.884Z,102472.50
2023-02-16T12:35:37.365Z,102463.88
2023-02-16T12:41:24.602Z,102466.06
2023-02-16T12:46:32.063Z,102478.88
2023-02-16T12:51:47.200Z,102486.94
2023-02-16T12:57:08.858Z,102494.81
2023-02-16T13:02:23.889Z,102490.28
2023-02-16T13:07:41.220Z,102487.03
2023-02-16T13:13:17.331Z,102475.25
2023-02-16T13:18:29.149Z,102490.44
2023-02-16T13:23:48.014Z,102484.41
2023-02-16T13:29:07.752Z,102497.38
2023-02-16T13:34:39.172Z,102499.84
2023-02-16T13:40:02.113Z,102497.72
2023-02-16T13:45:19.379Z,102503.06
2023-02-16T13:50:23.567Z,102505.41
2023-02-16T13:55:35.724Z,102509.72
2023-02-16T14:00:46.306Z,102505.44
2023-02-16T14:05:54.556Z,102523.38
2023-02-16T14:11:06.801Z,102522.06
2023-02-16T14:16:12.792Z,102520.25
2023-02-16T14:21:48.074Z,102523.50
2023-02-16T14:27:03.946Z,102523.81
2023-02-16T14:32:40.299Z,102529.50
2023-02-16T14:37:59.174Z,102535.81
2023-02-16T14:43:08.110Z,102546.13
2023-02-16T14:48:36.741Z,102535.28
2023-02-16T14:54:11.251Z,102524.81
2023-02-16T14:59:46.420Z,102545.41
2023-02-16T15:04:50.459Z,102539.66
2023-02-16T15:09:58.596Z,102542.03
2023-02-16T15:15:21.135Z,102535.47
2023-02-16T15:20:32.443Z,102551.63
2023-02-16T15:25:40.017Z,102554.41
2023-02-16T15:31:00.387Z,102559.34
2023-02-16T15:36:10.108Z,102550.22
2023-02-16T15:41:16.178Z,102550.63
2023-02-16T15:46:40.489Z,102543.69
2023-02-16T15:51:45.959Z,102557.34
2023-02-16T15:56:53.327Z,102549.41
2023-02-16T16:02:04.963Z,102547.81
2023-02-16T16:07:14.939Z,102547.00
2023-02-16T16:12:21.437Z,102541.16
2023-02-16T16:17:33.064Z,102543.94
2023-02-16T16:22:43.643Z,102543.25
2023-02-16T16:27:49.375Z,102530.06
2023-02-16T16:33:02.215Z,102509.97
2023-02-16T16:38:18.839Z,102550.63
2023-02-16T16:43:30.621Z,102538.81
2023-02-16T16:48:40.055Z,102566.47
2023-02-16T16:54:04.808Z,102553.25
2023-02-16T16:59:10.079Z,102550.41
2023-02-16T17:04:13.873Z,102541.22
2023-02-16T17:09:17.927Z,102552.28
2023-02-16T17:14:22.438Z,102557.28
2023-02-16T17:19:30.202Z,102555.78
2023-02-16T17:24:33.983Z,102544.97
2023-02-16T17:29:38.336Z,102537.09
2023-02-16T17:34:42.208Z,102546.31
2023-02-16T17:39:46.139Z,102530.16
2023-02-16T17:44:50.509Z,102524.91
2023-02-16T17:49:54.384Z,102546.72
2023-02-16T17:54:58.240Z,102531.69
2023-02-16T18:00:02.063Z,102528.47
2023-02-16T18:05:09.093Z,102521.22
2023-02-16T18:10:38.325Z,102525.44
2023-02-16T18:15:46.505Z,102528.81
2023-02-16T18:20:50.832Z,102538.09
2023-02-16T18:25:54.721Z,102531.78
2023-02-16T18:30:59.233Z,102532.88
2023-02-16T18:36:03.783Z,102533.84
2023-02-16T18:41:09.076Z,102527.91
2023-02-16T18:46:12.956Z,102504.16
2023-02-16T18:51:21.722Z,102511.50
2023-02-16T18:56:26.352Z,102544.38
2023-02-16T19:01:33.390Z,102515.66
2023-02-16T19:06:37.192Z,102434.59
2023-02-16T19:11:41.798Z,102517.31
2023-02-16T19:16:47.032Z,102508.19
2023-02-16T19:21:51.325Z,102533.84
2023-02-16T19:26:55.318Z,102472.75
2023-02-16T19:32:00.371Z,102500.63
2023-02-16T19:37:04.270Z,102511.41
2023-02-16T19:42:08.180Z,102499.22
2023-02-16T19:47:11.976Z,102516.69
2023-02-16T19:52:15.994Z,102494.31
2023-02-16T19:57:20.346Z,102520.97
2023-02-16T20:02:24.181Z,102490.63
2023-02-16T20:07:28.875Z,102531.50
2023-02-16T20:12:32.833Z,102524.25
2023-02-16T20:17:36.901Z,102520.31
2023-02-16T20:22:40.873Z,102513.50
2023-02-16T20:27:44.685Z,102507.59
2023-02-16T20:32:49.623Z,102512.22
2023-02-16T20:37:54.438Z,102488.22
2023-02-16T20:42:58.451Z,102508.91
2023-02-16T20:48:04.605Z,102508.78
2023-02-16T20:53:08.529Z,102510.91
2023-02-16T20:58:12.337Z,102517.63
2023-02-16T21:03:16.428Z,102430.78
2023-02-16T21:08:20.480Z,102516.47
2023-02-16T21:13:24.468Z,102506.78
2023-02-16T21:18:28.625Z,102488.38
2023-02-16T21:23:32.564Z,102510.13
2023-02-16T21:28:36.533Z,102495.47
2023-02-16T21:33:40.776Z,102506.16
2023-02-16T21:38:45.822Z,102495.72
2023-02-16T21:43:49.767Z,102491.88
2023-02-16T21:48:53.769Z,102453.59
2023-02-16T21:53:59.656Z,102498.81
2023-02-16T21:59:04.239Z,102500.69
2023-02-16T22:04:09.733Z,102492.22
2023-02-16T22:09:18.472Z,102487.47
2023-02-16T22:14:22.251Z,102491.81
2023-02-16T22:19:27.842Z,102488.19
2023-02-16T22:24:31.532Z,102493.97
2023-02-16T22:29:35.568Z,102473.25
2023-02-16T22:34:39.579Z,102489.13
2023-02-16T22:39:43.473Z,102509.06
2023-02-16T22:44:48.096Z,102517.63
2023-02-16T22:49:52.858Z,102513.75
2023-02-16T22:54:56.896Z,102511.84
2023-02-16T23:00:01.836Z,102509.75
2023-02-16T23:05:06.542Z,102495.03
2023-02-16T23:10:10.652Z,102506.41
2023-02-16T23:15:15.714Z,102504.38
2023-02-16T23:20:19.950Z,102495.34
2023-02-16T23:25:35.742Z,102512.34
2023-02-16T23:30:42.600Z,102510.47
2023-02-16T23:35:46.315Z,102512.94
2023-02-16T23:41:00.664Z,102509.59
2023-02-16T23:46:05.761Z,102514.50
2023-02-16T23:51:12.093Z,102506.25
2023-02-16T23:56:23.090Z,102490.84
